This is the latest recevied weather packets stored in our database for station/object BM3JAS-9. If no packets are shown the sender has not sent any weather packets the latest 1 day(s).
| Time | Temp. | Humidity | Pressure | Rain* | Wind** | Luminosity | Snow |
|---|---|---|---|---|---|---|---|
| 1778041485 | 27.22° C | 72% | 0 hPa | - | - | - | - |
| 1778040885 | 27.22° C | 73% | 0 hPa | - | - | - | - |
| 1778039085 | 26.11° C | 75% | 0 hPa | - | - | - | - |
| 1778034885 | 25.56° C | 77% | 0 hPa | - | - | - | - |
| 1778031885 | 25° C | 81% | 0 hPa | - | - | - | - |
| 1778021086 | 22.22° C | 86% | 0 hPa | - | - | - | - |
| 1778020486 | 22.22° C | 86% | 0 hPa | - | - | - | - |
| 1778019886 | 21.67° C | 86% | 0 hPa | - | - | - | - |
| 1778019286 | 21.67° C | 86% | 0 hPa | - | - | - | - |
| 1778018686 | 21.67° C | 85% | 0 hPa | - | - | - | - |
| 1778018086 | 21.67° C | 85% | 0 hPa | - | - | - | - |
| 1778017486 | 21.67° C | 86% | 0 hPa | - | - | - | - |
| 1778016886 | 21.67° C | 86% | 0 hPa | - | - | - | - |
| 1778016286 | 21.67° C | 86% | 0 hPa | - | - | - | - |
| 1778015086 | 21.67° C | 86% | 0 hPa | - | - | - | - |
| 1778014486 | 21.67° C | 86% | 0 hPa | - | - | - | - |
| 1778013886 | 21.67° C | 86% | 0 hPa | - | - | - | - |
| 1778013286 | 21.67° C | 86% | 0 hPa | - | - | - | - |
| 1778012686 | 21.67° C | 86% | 0 hPa | - | - | - | - |
| 1778012086 | 21.67° C | 85% | 0 hPa | - | - | - | - |
| 1778011486 | 21.11° C | 86% | 0 hPa | - | - | - | - |
| 1778010886 | 21.67° C | 85% | 0 hPa | - | - | - | - |
| 1778010286 | 21.67° C | 85% | 0 hPa | - | - | - | - |
| 1778009686 | 21.67° C | 85% | 0 hPa | - | - | - | - |
| 1778008486 | 21.67° C | 85% | 0 hPa | - | - | - | - |
* Rain since midnight (hover to see other rain measurements)
** Current wind speed in m/s (hover to see current wind gust speed)